Flight Track Log - Related Links

Times and Time Zones

All times are in EDT time to prevent confusion due to time zone crossing. See the N92PK flight status page for this flight to view local times or setup timezone preferences in your user account.

Time Position Orientation Groundspeed Altitude Reporting Facility
EDT Latitude Longitude Course Direction KTS MPH feet Rate Location/Type
Wed 05:47:19 PM 37.9408 -87.6069 216° Southwest 115 132 3,800  Level Indianapolis Center
Wed 05:48:21 PM 37.9247 -87.6389 237° Southwest 124 143 4,700 968 Climbing Indianapolis Center
Wed 05:49:00 PM 38.2540 -87.6182 343° North  Level FlightAware Approximate
Wed 05:49:23 PM 37.9703 -87.6572 342° North 140 161 5,800  Level Indianapolis Center
Wed 05:50:00 PM 38.2989 -87.6358 343° North  Level FlightAware Approximate
Wed 05:50:25 PM 38.0103 -87.6733 342° North 146 168 6,000  Level Indianapolis Center
Wed 05:51:00 PM 38.3438 -87.6534 343° North  Level FlightAware Approximate
Wed 05:51:27 PM 38.0558 -87.6889 345° North 158 182 6,000  Level Indianapolis Center
Wed 05:52:29 PM 38.1025 -87.7064 344° North 166 191 6,000  Level Indianapolis Center
Wed 05:53:31 PM 38.1475 -87.7233 344° North 168 193 6,000  Level Indianapolis Center
Wed 05:54:33 PM 38.1928 -87.7397 344° North 169 194 6,000  Level Indianapolis Center
Wed 05:55:35 PM 38.2369 -87.7556 344° North 167 192 6,000  Level Indianapolis Center
Wed 05:56:37 PM 38.2900 -87.7758 343° North 165 190 6,000  Level Indianapolis Center
Wed 05:57:39 PM 38.3353 -87.7919 344° North 166 191 6,000  Level Indianapolis Center
Wed 05:58:41 PM 38.3800 -87.8083 344° North 166 191 6,000  Level Indianapolis Center
Wed 05:59:43 PM 38.4247 -87.8250 344° North 167 192 6,000  Level Indianapolis Center
Wed 06:00:45 PM 38.4703 -87.8411 345° North 167 192 6,000  Level Indianapolis Center
Wed 06:01:47 PM 38.5153 -87.8583 343° North 168 193 6,000  Level Indianapolis Center
Wed 06:02:49 PM 38.5611 -87.8750 344° North 169 194 6,000  Level Indianapolis Center
Wed 06:03:51 PM 38.6142 -87.8950 344° North 167 192 6,000  Level Indianapolis Center
Wed 06:04:54 PM 38.6592 -87.9122 343° North 167 192 6,000 48 Level Indianapolis Center
Wed 06:05:56 PM 38.7033 -87.9272 345° North 166 191 6,100 48 Climbing Indianapolis Center
Wed 06:06:58 PM 38.7467 -87.9442 343° North 164 189 6,100  Level Indianapolis Center
Wed 06:08:00 PM 38.7903 -87.9600 344° North 163 188 6,100 -48 Level Indianapolis Center
Wed 06:09:02 PM 38.8347 -87.9761 344° North 163 188 6,000 -48 Descending Indianapolis Center
Wed 06:10:04 PM 38.8783 -87.9922 344° North 163 188 6,000  Level Indianapolis Center
Wed 06:11:06 PM 38.9214 -88.0086 344° North 162 186 6,000  Level Indianapolis Center
Wed 06:12:08 PM 38.9736 -88.0294 343° North 162 186 6,000  Level Indianapolis Center
Wed 06:13:10 PM 39.0181 -88.0447 345° North 164 189 6,000  Level Indianapolis Center
Wed 06:14:12 PM 39.0606 -88.0619 343° North 161 185 6,000  Level Indianapolis Center
Wed 06:15:14 PM 39.1033 -88.0786 343° North 159 183 6,000  Level Indianapolis Center
Wed 06:16:16 PM 39.1467 -88.0947 344° North 160 184 6,000  Level Indianapolis Center
Wed 06:17:18 PM 39.1911 -88.1086 346° North 162 186 6,000  Level Indianapolis Center
Wed 06:18:20 PM 39.2350 -88.1272 342° North 164 189 6,000  Level Indianapolis Center
Wed 06:19:22 PM 39.2878 -88.1483 343° North 164 189 6,000  Level Indianapolis Center
Wed 06:20:24 PM 39.3342 -88.1653 344° North 168 193 6,000  Level Indianapolis Center
Wed 06:21:26 PM 39.3803 -88.1822 344° North 170 196 6,000  Level Indianapolis Center
Wed 06:22:28 PM 39.4269 -88.1981 345° North 171 197 6,000  Level Indianapolis Center
Wed 06:23:30 PM 39.4719 -88.2153 344° North 170 196 6,000  Level Indianapolis Center
Wed 06:24:33 PM 39.5175 -88.2328 343° North 170 196 6,000  Level Indianapolis Center
Wed 06:25:35 PM 39.5619 -88.2506 343° North 169 194 6,000  Level Indianapolis Center
Wed 06:26:37 PM 39.6167 -88.2722 343° North 169 194 6,000  Level Indianapolis Center
Wed 06:27:39 PM 39.6639 -88.2892 345° North 172 198 6,000  Level Indianapolis Center
Wed 06:28:41 PM 39.7022 -88.3089 338° Northwest 171 197 6,000  Level Indianapolis Center
Wed 06:30:42 PM 39.8008 -88.3419 346° North 172 198 6,000  Level Chicago Center
Wed 06:31:44 PM 39.8458 -88.3594 343° North 170 196 6,000  Level Chicago Center
Wed 06:32:47 PM 39.8892 -88.3789 341° North 167 192 6,000  Level Chicago Center
Wed 06:33:49 PM 39.9428 -88.3989 344° North 166 191 6,000 15 Level Chicago Center
Wed 06:39:28 PM 40.2040 -88.5010 344° North 177 204 6,100 16 Climbing FlightAware ADS-B
Wed 06:39:53 PM 40.2220 -88.5070 346° North 174 200 6,100  Level FlightAware ADS-B
Wed 06:40:38 PM 40.2590 -88.5220 343° North 173 199 6,100  Level FlightAware ADS-B
Wed 06:41:03 PM 40.2770 -88.5290 343° North 173 199 6,100  Level FlightAware ADS-B
Wed 06:41:33 PM 40.3010 -88.5380 344° North 176 203 6,100  Level FlightAware ADS-B
Wed 06:41:58 PM 40.3210 -88.5460 343° North 176 203 6,100  Level FlightAware ADS-B
Wed 06:42:28 PM 40.3440 -88.5550 343° North 175 201 6,100  Level FlightAware ADS-B
Wed 06:42:58 PM 40.3680 -88.5650 342° North 177 204 6,100  Level FlightAware ADS-B
Wed 06:43:28 PM 40.3900 -88.5730 345° North 177 204 6,100  Level FlightAware ADS-B
Wed 06:43:38 PM 40.3960 -88.5760 339° North 177 204 6,100  Level FlightAware ADS-B
Wed 06:44:08 PM 40.4220 -88.5860 344° North 178 205 6,100  Level FlightAware ADS-B
Wed 06:44:38 PM 40.4460 -88.5950 344° North 176 203 6,100  Level FlightAware ADS-B
Wed 06:45:03 PM 40.4650 -88.6030 342° North 178 205 6,100  Level FlightAware ADS-B
Wed 06:45:33 PM 40.4890 -88.6120 344° North 178 205 6,100  Level FlightAware ADS-B
Wed 06:45:43 PM 40.4960 -88.6150 342° North 178 205 6,100  Level FlightAware ADS-B
Wed 06:46:13 PM 40.5190 -88.6240 343° North 176 203 6,100  Level FlightAware ADS-B
Wed 06:46:43 PM 40.5450 -88.6340 344° North 175 201 6,100  Level FlightAware ADS-B
Wed 06:47:08 PM 40.5620 -88.6410 343° North 175 201 6,100  Level FlightAware ADS-B
Wed 06:47:38 PM 40.5870 -88.6510 343° North 178 205 6,100  Level FlightAware ADS-B
Wed 06:48:08 PM 40.6090 -88.6600 343° North 176 203 6,100  Level FlightAware ADS-B
Wed 06:48:28 PM 40.6240 -88.6650 346° North 176 203 6,100  Level FlightAware ADS-B
Wed 06:48:53 PM 40.6430 -88.6730 342° North 176 203 6,100  Level FlightAware ADS-B
Wed 06:49:43 PM 40.6850 -88.6900 343° North 176 203 6,100  Level FlightAware ADS-B
Wed 06:50:13 PM 40.7090 -88.6990 344° North 174 200 6,100  Level FlightAware ADS-B
Wed 06:50:38 PM 40.7270 -88.7060 344° North 172 198 6,100  Level FlightAware ADS-B
Wed 06:51:08 PM 40.7490 -88.7150 343° North 169 194 6,100  Level FlightAware ADS-B
Wed 06:51:38 PM 40.7720 -88.7240 343° North 170 196 6,100  Level FlightAware ADS-B
Wed 06:51:53 PM 40.7840 -88.7290 342° North 171 197 6,100  Level FlightAware ADS-B
Wed 06:52:18 PM 40.8040 -88.7370 343° North 172 198 6,100  Level FlightAware ADS-B
Wed 06:52:48 PM 40.8280 -88.7460 344° North 171 197 6,100  Level FlightAware ADS-B
Wed 06:53:13 PM 40.8450 -88.7530 343° North 170 196 6,100  Level FlightAware ADS-B
Wed 06:53:43 PM 40.8680 -88.7620 344° North 171 197 6,100  Level FlightAware ADS-B
Wed 06:53:58 PM 40.8780 -88.7660 343° North 171 197 6,100  Level FlightAware ADS-B
Wed 06:54:23 PM 40.8970 -88.7740 342° North 171 197 6,100  Level FlightAware ADS-B
Wed 06:54:53 PM 40.9200 -88.7830 344° North 173 199 6,100 -218 Level FlightAware ADS-B
Wed 06:55:18 PM 40.9410 -88.7910 344° North 181 208 5,900 -545 Descending FlightAware ADS-B
Wed 06:55:48 PM 40.9660 -88.8010 343° North 183 211 5,600 -500 Descending FlightAware ADS-B
Wed 06:56:18 PM 40.9880 -88.8100 343° North 185 213 5,400 -436 Descending FlightAware ADS-B
Wed 06:56:43 PM 41.0100 -88.8190 343° North 183 211 5,200 -327 Descending FlightAware ADS-B
Wed 06:57:13 PM 41.0350 -88.8290 343° North 175 201 5,100 -109 Descending FlightAware ADS-B
Wed 06:57:38 PM 41.0540 -88.8360 344° North 170 196 5,100  Level FlightAware ADS-B
Wed 06:58:08 PM 41.0770 -88.8460 342° North 167 192 5,100  Level FlightAware ADS-B
Wed 06:58:38 PM 41.0970 -88.8540 343° North 167 192 5,100  Level FlightAware ADS-B
Wed 06:59:03 PM 41.1160 -88.8610 344° North 164 189 5,100  Level FlightAware ADS-B
Wed 06:59:33 PM 41.1380 -88.8700 343° North 163 188 5,100  Level FlightAware ADS-B
Wed 07:00:13 PM 41.1670 -88.8820 343° North 162 186 5,100  Level FlightAware ADS-B
Wed 07:00:43 PM 41.1880 -88.8900 344° North 164 189 5,100  Level FlightAware ADS-B
Wed 07:01:08 PM 41.2080 -88.8980 343° North 163 188 5,100  Level FlightAware ADS-B
Wed 07:01:38 PM 41.2300 -88.9070 343° North 162 186 5,100  Level FlightAware ADS-B
Wed 07:02:03 PM 41.2470 -88.9140 343° North 162 186 5,100  Level FlightAware ADS-B
Wed 07:02:33 PM 41.2680 -88.9220 344° North 161 185 5,100  Level FlightAware ADS-B
Wed 07:02:48 PM 41.2800 -88.9270 343° North 163 188 5,100  Level FlightAware ADS-B
Wed 07:03:13 PM 41.2980 -88.9340 344° North 165 190 5,100  Level FlightAware ADS-B
Wed 07:03:43 PM 41.3200 -88.9430 343° North 164 189 5,100  Level FlightAware ADS-B
Wed 07:03:58 PM 41.3310 -88.9480 341° North 164 189 5,100  Level FlightAware ADS-B
Wed 07:04:23 PM 41.3470 -88.9540 344° North 164 189 5,100  Level FlightAware ADS-B
Wed 07:04:53 PM 41.3700 -88.9630 344° North 164 189 5,100  Level FlightAware ADS-B
Wed 07:05:13 PM 41.3850 -88.9690 343° North 164 189 5,100  Level FlightAware ADS-B
Wed 07:05:48 PM 41.4100 -88.9800 342° North 167 192 5,100  Level FlightAware ADS-B
Wed 07:06:18 PM 41.4320 -88.9890 343° North 167 192 5,100  Level FlightAware ADS-B
Wed 07:06:33 PM 41.4420 -88.9910 351° North 168 193 5,100  Level FlightAware ADS-B
Wed 07:06:58 PM 41.4630 -88.9860 10° North 168 193 5,100  Level FlightAware ADS-B
Wed 07:07:28 PM 41.4870 -88.9810 North 168 193 5,100  Level FlightAware ADS-B
Wed 07:07:43 PM 41.4980 -88.9790 North 166 191 5,100  Level FlightAware ADS-B
Wed 07:08:08 PM 41.5180 -88.9750 North 167 192 5,100  Level FlightAware ADS-B
Wed 07:08:38 PM 41.5400 -88.9700 10° North 166 191 5,100  Level FlightAware ADS-B
Wed 07:09:03 PM 41.5580 -88.9660 North 167 192 5,100  Level FlightAware ADS-B
Wed 07:09:33 PM 41.5820 -88.9610 North 167 192 5,100  Level FlightAware ADS-B
Wed 07:09:48 PM 41.5930 -88.9580 12° North 166 191 5,100  Level FlightAware ADS-B
Wed 07:10:13 PM 41.6120 -88.9540 North 165 190 5,100  Level FlightAware ADS-B
Wed 07:10:43 PM 41.6350 -88.9500 North 164 189 5,100  Level FlightAware ADS-B
Wed 07:11:08 PM 41.6530 -88.9460 North 164 189 5,100  Level FlightAware ADS-B
Wed 07:11:38 PM 41.6760 -88.9410 North 166 191 5,100  Level FlightAware ADS-B
Wed 07:12:08 PM 41.7000 -88.9360 North 164 189 5,100  Level FlightAware ADS-B
Wed 07:12:33 PM 41.7180 -88.9320 North 163 188 5,100  Level FlightAware ADS-B
Wed 07:13:03 PM 41.7410 -88.9270 North 165 190 5,100  Level FlightAware ADS-B
Wed 07:13:33 PM 41.7630 -88.9220 10° North 162 186 5,100  Level FlightAware ADS-B
Wed 07:13:58 PM 41.7810 -88.9180 North 164 189 5,100  Level FlightAware ADS-B
Wed 07:14:28 PM 41.8050 -88.9130 North 163 188 5,100  Level FlightAware ADS-B
Wed 07:14:53 PM 41.8230 -88.9090 North 163 188 5,100  Level FlightAware ADS-B
Wed 07:15:23 PM 41.8450 -88.9040 10° North 163 188 5,100  Level FlightAware ADS-B
Wed 07:16:03 PM 41.8750 -88.8980 North 164 189 5,100  Level FlightAware ADS-B
Wed 07:16:33 PM 41.8970 -88.8930 10° North 166 191 5,100  Level FlightAware ADS-B
Wed 07:17:03 PM 41.9200 -88.8880 North 165 190 5,100  Level FlightAware ADS-B
Wed 07:17:28 PM 41.9400 -88.8840 North 164 189 5,100  Level FlightAware ADS-B
Wed 07:17:58 PM 41.9620 -88.8790 10° North 153 176 5,100  Level FlightAware ADS-B
Wed 07:18:23 PM 41.9780 -88.8760 North 154 177 5,100  Level FlightAware ADS-B
Wed 07:18:53 PM 42.0000 -88.8710 10° North 157 181 5,100  Level FlightAware ADS-B
Wed 07:19:18 PM 42.0190 -88.8670 North 161 185 5,100  Level FlightAware ADS-B
Wed 07:19:48 PM 42.0410 -88.8620 10° North 161 185 5,100  Level FlightAware ADS-B
Wed 07:20:18 PM 42.0620 -88.8580 North 162 186 5,100  Level FlightAware ADS-B
Wed 07:20:43 PM 42.0800 -88.8540 North 162 186 5,100  Level FlightAware ADS-B
Wed 07:21:13 PM 42.1040 -88.8480 11° North 166 191 5,100  Level FlightAware ADS-B
Wed 07:21:43 PM 42.1260 -88.8440 North 164 189 5,100  Level FlightAware ADS-B
Wed 07:22:08 PM 42.1460 -88.8400 North 165 190 5,100  Level FlightAware ADS-B
Wed 07:22:38 PM 42.1670 -88.8350 10° North 164 189 5,100  Level FlightAware ADS-B
Wed 07:22:53 PM 42.1780 -88.8320 11° North 162 186 5,100  Level FlightAware ADS-B
Wed 07:23:18 PM 42.1990 -88.8280 North 164 189 5,100  Level FlightAware ADS-B
Wed 07:23:48 PM 42.2210 -88.8230 10° North 165 190 5,100  Level FlightAware ADS-B
Wed 07:23:58 PM 42.2280 -88.8220 North 164 189 5,100  Level FlightAware ADS-B
Wed 07:24:28 PM 42.2510 -88.8160 11° North 165 190 5,100  Level FlightAware ADS-B
Wed 07:24:58 PM 42.2740 -88.8120 North 164 189 5,100  Level FlightAware ADS-B
Wed 07:25:23 PM 42.2920 -88.8080 North 163 188 5,100  Level FlightAware ADS-B
Wed 07:25:53 PM 42.3130 -88.8030 10° North 165 190 5,100  Level FlightAware ADS-B
Wed 07:26:23 PM 42.3370 -88.7980 North 167 192 5,100  Level FlightAware ADS-B
Wed 07:26:43 PM 42.3520 -88.7950 North 168 193 5,100  Level FlightAware ADS-B
Wed 07:27:18 PM 42.3800 -88.7880 10° North 171 197 5,100  Level FlightAware ADS-B
Wed 07:27:48 PM 42.4030 -88.7830 North 171 197 5,100  Level FlightAware ADS-B
Wed 07:28:13 PM 42.4220 -88.7790 North 172 198 5,100  Level FlightAware ADS-B
Wed 07:28:43 PM 42.4460 -88.7740 North 172 198 5,100  Level FlightAware ADS-B
Wed 07:29:08 PM 42.4640 -88.7670 16° North 174 200 5,100  Level FlightAware ADS-B
Wed 07:29:28 PM 42.4800 -88.7550 29° Northeast 176 203 5,100  Level FlightAware ADS-B
Wed 07:29:53 PM 42.4960 -88.7430 29° Northeast 176 203 5,100  Level FlightAware ADS-B
Wed 07:30:23 PM 42.5180 -88.7270 28° Northeast 175 201 5,100  Level FlightAware ADS-B
Wed 07:30:48 PM 42.5350 -88.7150 27° Northeast 174 200 5,100  Level FlightAware ADS-B
Wed 07:31:18 PM 42.5570 -88.6980 30° Northeast 175 201 5,100  Level FlightAware ADS-B
Wed 07:31:48 PM 42.5800 -88.6820 27° Northeast 177 204 5,100  Level FlightAware ADS-B
Wed 07:32:13 PM 42.5980 -88.6690 28° Northeast 177 204 5,100  Level FlightAware ADS-B
Wed 07:32:28 PM 42.6090 -88.6600 31° Northeast 177 204 5,100  Level FlightAware ADS-B
Wed 07:32:53 PM 42.6260 -88.6480 27° Northeast 179 206 5,100  Level FlightAware ADS-B
Wed 07:33:23 PM 42.6470 -88.6320 29° Northeast 179 206 5,100  Level FlightAware ADS-B
Wed 07:33:48 PM 42.6670 -88.6180 27° Northeast 182 209 5,100  Level FlightAware ADS-B
Wed 07:34:23 PM 42.6900 -88.6010 29° Northeast 180 207 5,100  Level FlightAware ADS-B
Wed 07:34:48 PM 42.7120 -88.5850 28° Northeast 181 208 5,100  Level FlightAware ADS-B
Wed 07:35:18 PM 42.7340 -88.5690 28° Northeast 177 204 5,100  Level FlightAware ADS-B
Wed 07:35:33 PM 42.7440 -88.5610 30° Northeast 176 203 5,100  Level FlightAware ADS-B
Wed 07:35:53 PM 42.7580 -88.5510 28° Northeast 176 203 5,100  Level FlightAware ADS-B
Wed 07:36:28 PM 42.7840 -88.5320 28° Northeast 177 204 5,100  Level FlightAware ADS-B
Wed 07:36:43 PM 42.7950 -88.5240 28° Northeast 177 204 5,100  Level FlightAware ADS-B
Wed 07:37:03 PM 42.8090 -88.5130 30° Northeast 177 204 5,100  Level FlightAware ADS-B
Wed 07:37:38 PM 42.8340 -88.4940 29° Northeast 177 204 5,100  Level FlightAware ADS-B
Wed 07:38:03 PM 42.8520 -88.4810 28° Northeast 178 205 5,100  Level FlightAware ADS-B
Wed 07:38:18 PM 42.8610 -88.4680 47° Northeast 184 212 5,100  Level FlightAware ADS-B
Wed 07:38:48 PM 42.8760 -88.4410 53° Northeast 183 211 5,100 -109 Level FlightAware ADS-B
Wed 07:39:13 PM 42.8890 -88.4190 51° Northeast 187 215 5,000 -436 Descending FlightAware ADS-B
Wed 07:39:43 PM 42.9050 -88.3910 52° Northeast 182 209 4,700 -655 Descending FlightAware ADS-B
Wed 07:40:08 PM 42.9190 -88.3680 50° Northeast 182 209 4,400 -764 Descending FlightAware ADS-B
Wed 07:40:38 PM 42.9330 -88.3430 53° Northeast 180 207 4,000 -764 Descending FlightAware ADS-B
Wed 07:41:03 PM 42.9470 -88.3190 51° Northeast 179 206 3,700 -400 Descending FlightAware ADS-B
Wed 07:41:38 PM 42.9640 -88.2890 52° Northeast 179 206 3,600 -400 Descending FlightAware ADS-B
Wed 07:42:18 PM 42.9840 -88.2550 51° Northeast 178 205 3,200 -400 Descending FlightAware ADS-B
Wed 07:42:53 PM 42.9980 -88.2310 51° Northeast 159 183 3,100 -100 Descending FlightAware ADS-B
Wed 07:43:18 PM 43.0090 -88.2110 53° Northeast 159 183 3,100  Level FlightAware ADS-B
Wed 07:43:38 PM 43.0170 -88.1970 52° Northeast 159 183 3,100 -400 Level FlightAware ADS-B
Wed 07:44:03 PM 43.0300 -88.1740 52° Northeast 162 186 2,800 -369 Descending FlightAware ADS-B
Wed 07:44:43 PM 43.0470 -88.1450 51° Northeast 165 190 2,700 -150 Descending FlightAware ADS-B
Wed 07:45:23 PM 43.0650 -88.1130 52° Northeast 155 178 2,600 -327 Descending FlightAware ADS-B
Wed 07:45:38 PM 43.0660 -88.0990 84° East 152 175 2,400 -400 Descending FlightAware ADS-B
Wed 07:46:08 PM 43.0700 -88.0710 79° East 155 178 2,300 -480 Descending FlightAware ADS-B
Wed 07:46:28 PM 43.0760 -88.0490 70° East 157 181 2,000 -400 Descending FlightAware ADS-B
Wed 07:46:53 PM 43.0840 -88.0270 64° Northeast 157 181 2,000 -391 Level FlightAware ADS-B
Wed 07:47:14 PM 43.0875 -88.0150 64° Northeast 156 180 1,700 -857 Descending Chicago Center
Wed 07:49:00 PM 43.1000 -88.0333 51° Northeast  Level FlightAware Approximate

Login

Don't have an account? Register now (free) for customized features, flight alerts, and more!